Time;durP1;ratioP1;P1;durP2;ratioP2;P2;SDS_P1;SDS_P2;PMS_P1;PMS_P2;Temp;Humidity;BMP_temperature;BMP_pressure;BME280_temperature;BME280_humidity;BME280_pressure;Samples;Min_cycle;Max_cycle;Signal;HPM_P1;HPM_P2
2020/12/27 17:07:11;;;;;;;;;;;;;;;0.85;59.17;99123.63;5125004;27;20829;-68
2020/12/27 17:09:38;;;;;;;18.85;10.45;;;;;;;0.67;59.40;99108.97;5121423;27;19919;-68
2020/12/27 17:12:06;;;;;;;27.38;16.33;;;;;;;0.49;60.12;99114.16;5102625;27;20058;-67
2020/12/27 17:14:32;;;;;;;21.98;12.57;;;;;;;0.45;60.40;99115.22;5062526;27;1224560;-67
2020/12/27 17:17:02;;;;;;;22.58;13.02;;;;;;;0.39;60.42;99099.94;5103373;28;20130;-69
2020/12/27 17:19:29;;;;;;;19.52;11.88;;;;;;;0.37;60.82;99102.59;5102748;28;20044;-69
2020/12/27 17:21:56;;;;;;;18.30;10.10;;;;;;;0.33;61.01;99092.44;5102361;28;20044;-66
2020/12/27 17:24:27;;;;;;;20.80;11.80;;;;;;;0.32;60.84;99085.56;5102204;28;20048;-69
2020/12/27 17:26:54;;;;;;;20.13;10.20;;;;;;;0.28;61.08;99081.44;5104178;28;20054;-68
2020/12/27 17:29:21;;;;;;;16.70;10.23;;;;;;;0.30;61.44;99064.03;5098534;28;20052;-65
2020/12/27 17:31:51;;;;;;;25.20;14.52;;;;;;;0.29;61.29;99070.13;5084140;28;20043;-69
2020/12/27 17:34:20;;;;;;;17.58;8.27;;;;;;;0.28;61.39;99060.66;5098343;28;20093;-63
2020/12/27 17:36:46;;;;;;;21.35;10.05;;;;;;;0.29;61.45;99063.19;5047104;28;20036;-70
2020/12/27 17:39:13;;;;;;;17.88;7.72;;;;;;;0.27;61.60;99054.66;5099892;28;20607;-69
2020/12/27 17:41:47;;;;;;;23.50;13.52;;;;;;;0.27;61.69;99059.84;5087984;28;20044;-70
2020/12/27 17:44:17;;;;;;;24.55;12.10;;;;;;;0.24;61.92;99043.56;5102540;28;20040;-70
2020/12/27 17:46:45;;;;;;;25.67;12.25;;;;;;;0.22;62.25;99040.19;5104250;28;20134;-72
2020/12/27 17:49:16;;;;;;;19.85;12.57;;;;;;;0.22;62.10;99035.00;5108789;28;20043;-70
2020/12/27 17:51:43;;;;;;;13.80;8.30;;;;;;;0.24;62.46;99033.19;5107714;28;20051;-68
2020/12/27 17:54:11;;;;;;;25.27;12.88;;;;;;;0.24;62.47;99033.19;5105117;28;20126;-71
2020/12/27 17:56:38;;;;;;;23.13;10.82;;;;;;;0.25;62.40;99029.66;5114301;28;20043;-72
2020/12/27 17:59:05;;;;;;;13.00;8.13;;;;;;;0.25;62.57;99019.25;5116394;28;20047;-67
2020/12/27 18:01:32;;;;;;;20.23;10.82;;;;;;;0.25;62.68;99024.47;5104769;28;20043;-66
2020/12/27 18:03:58;;;;;;;20.05;12.77;;;;;;;0.23;62.99;99019.34;5100222;28;20044;-66
2020/12/27 18:06:25;;;;;;;14.48;8.85;;;;;;;0.21;62.88;99002.16;5085858;28;20144;-68
2020/12/27 18:08:53;;;;;;;14.98;8.25;;;;;;;0.21;63.07;99018.56;5088162;28;20052;-69
2020/12/27 18:11:20;;;;;;;23.17;12.85;;;;;;;0.23;62.87;99005.53;5084868;28;20052;-68
2020/12/27 18:13:47;;;;;;;23.90;15.13;;;;;;;0.22;62.93;98999.50;5093126;28;20233;-65
2020/12/27 18:16:15;;;;;;;24.10;13.32;;;;;;;0.22;63.32;98994.31;5092163;28;20040;-66
2020/12/27 18:18:41;;;;;;;15.85;7.60;;;;;;;0.23;63.43;98987.34;5072341;28;20054;-66
2020/12/27 18:21:14;;;;;;;12.05;6.40;;;;;;;0.27;63.58;98991.44;5088021;28;20047;-67
2020/12/27 18:23:40;;;;;;;13.98;8.07;;;;;;;0.31;63.24;98991.25;5084418;28;20047;-67
2020/12/27 18:26:06;;;;;;;26.45;13.93;;;;;;;0.28;63.32;98980.16;5079662;28;20049;-72
2020/12/27 18:28:33;;;;;;;26.63;12.27;;;;;;;0.26;63.71;98979.41;5082890;28;20059;-71
2020/12/27 18:31:00;;;;;;;22.27;11.25;;;;;;;0.24;63.58;98982.06;5085057;28;20058;-72
2020/12/27 18:33:27;;;;;;;22.17;11.45;;;;;;;0.25;63.72;98972.53;5080470;28;20113;-67
2020/12/27 18:35:54;;;;;;;22.60;12.38;;;;;;;0.26;63.74;98971.63;5069165;28;20055;-66
2020/12/27 18:38:21;;;;;;;18.92;10.50;;;;;;;0.29;63.34;98971.44;5065366;28;20174;-65
2020/12/27 18:40:47;;;;;;;12.18;6.82;;;;;;;0.27;63.64;98960.28;5067769;28;20047;-72
2020/12/27 18:43:14;;;;;;;22.42;13.93;;;;;;;0.29;63.80;98964.50;5058796;28;20048;-67
2020/12/27 18:45:43;;;;;;;26.98;16.65;;;;;;;0.30;63.65;98965.34;5056911;28;20044;-69
2020/12/27 18:48:10;;;;;;;22.08;10.73;;;;;;;0.30;63.75;98957.53;5058518;28;20056;-69
2020/12/27 18:50:42;;;;;;;22.63;12.98;;;;;;;0.31;63.64;98946.25;5056597;28;20136;-66
2020/12/27 18:53:10;;;;;;;27.02;16.23;;;;;;;0.33;63.78;98944.41;5022142;28;20049;-69
2020/12/27 18:55:36;;;;;;;24.60;11.35;;;;;;;0.32;63.69;98930.56;5057438;28;20055;-67
2020/12/27 18:58:03;;;;;;;31.63;16.60;;;;;;;0.34;63.71;98931.34;5054282;28;20205;-68
2020/12/27 19:00:29;;;;;;;18.77;11.00;;;;;;;0.35;63.70;98930.41;5055375;28;20070;-70
2020/12/27 19:02:56;;;;;;;22.80;9.25;;;;;;;0.37;63.52;98923.38;5060009;28;20427;-69
2020/12/27 19:05:22;;;;;;;23.33;13.35;;;;;;;0.37;63.80;98922.56;5075676;28;20661;-69
2020/12/27 19:07:50;;;;;;;17.42;9.07;;;;;;;0.38;63.44;98919.03;5075772;28;20760;-72
2020/12/27 19:10:16;;;;;;;17.10;9.18;;;;;;;0.38;63.59;98909.50;5077775;28;20044;-70
2020/12/27 19:12:43;;;;;;;21.33;10.60;;;;;;;0.38;63.93;98906.88;5077053;28;20043;-69
2020/12/27 19:15:09;;;;;;;23.70;9.75;;;;;;;0.39;63.70;98894.72;5076914;28;20803;-68
2020/12/27 19:17:35;;;;;;;16.92;8.93;;;;;;;0.40;63.71;98903.34;5077076;28;20048;-68
2020/12/27 19:20:02;;;;;;;16.77;7.63;;;;;;;0.38;63.78;98890.47;5078726;28;20123;-67
2020/12/27 19:22:28;;;;;;;19.02;9.80;;;;;;;0.38;63.65;98890.47;5076513;28;20040;-67
2020/12/27 19:24:55;;;;;;;16.60;8.98;;;;;;;0.40;63.81;98887.78;5076772;28;20098;-67
2020/12/27 19:27:22;;;;;;;19.05;10.77;;;;;;;0.41;63.60;98887.69;5077204;28;20236;-66
2020/12/27 19:29:53;;;;;;;14.75;8.02;;;;;;;0.42;63.35;98889.38;5073470;28;20044;-64
2020/12/27 19:32:20;;;;;;;16.67;7.78;;;;;;;0.43;63.53;98878.06;5074141;28;20044;-65
2020/12/27 19:34:48;;;;;;;17.65;9.75;;;;;;;0.44;63.26;98884.94;5076862;28;20040;-64
2020/12/27 19:37:17;;;;;;;18.92;12.00;;;;;;;0.43;63.42;98878.06;5074967;28;20565;-64
2020/12/27 19:39:45;;;;;;;18.08;8.95;;;;;;;0.46;63.17;98872.72;5077708;28;20048;-65
2020/12/27 19:42:12;;;;;;;21.42;11.30;;;;;;;0.43;63.14;98877.22;5075718;28;20080;-66
2020/12/27 19:44:39;;;;;;;18.65;9.30;;;;;;;0.47;62.86;98868.34;5075017;28;20074;-65
2020/12/27 19:47:06;;;;;;;20.33;8.57;;;;;;;0.49;63.08;98872.56;5077636;28;20410;-65
2020/12/27 19:49:32;;;;;;;14.13;7.55;;;;;;;0.48;62.99;98875.22;5075200;28;20044;-66
2020/12/27 19:51:59;;;;;;;17.70;8.10;;;;;;;0.47;63.03;98858.81;5076608;28;20283;-69
2020/12/27 19:54:26;;;;;;;12.93;7.45;;;;;;;0.48;62.86;98857.88;5075916;28;20150;-66
2020/12/27 19:56:56;;;;;;;16.75;8.43;;;;;;;0.51;63.18;98857.72;5074232;28;20108;-67
2020/12/27 19:59:24;;;;;;;19.42;12.00;;;;;;;0.49;62.98;98856.97;5074802;28;20722;-64
2020/12/27 20:01:56;;;;;;;17.10;11.27;;;;;;;0.52;62.62;98858.56;5072681;28;20435;-67
2020/12/27 20:04:24;;;;;;;16.67;9.60;;;;;;;0.51;62.93;98854.28;5060762;28;20179;-68
2020/12/27 20:06:52;;;;;;;17.75;7.93;;;;;;;0.53;63.00;98848.09;5052007;28;20553;-68
2020/12/27 20:09:19;;;;;;;19.33;8.60;;;;;;;0.55;62.62;98837.63;5026298;28;20115;-68
2020/12/27 20:11:46;;;;;;;22.02;8.45;;;;;;;0.53;62.71;98847.25;5064489;28;20040;-66
2020/12/27 20:14:13;;;;;;;14.85;8.48;;;;;;;0.54;62.82;98844.56;5049790;28;20622;-66
2020/12/27 20:16:40;;;;;;;18.25;10.75;;;;;;;0.55;62.76;98825.44;5049788;28;20044;-66
2020/12/27 20:19:07;;;;;;;24.02;12.00;;;;;;;0.54;62.69;98829.00;5075954;28;20051;-65
2020/12/27 20:21:34;;;;;;;19.40;9.80;;;;;;;0.56;62.54;98829.75;5075460;28;20669;-67
2020/12/27 20:24:01;;;;;;;17.98;10.23;;;;;;;0.60;62.37;98826.97;5076880;28;20139;-67
2020/12/27 20:26:27;;;;;;;17.10;8.30;;;;;;;0.61;62.39;98818.25;5076795;28;20109;-66
2020/12/27 20:28:54;;;;;;;16.88;9.20;;;;;;;0.61;62.65;98813.88;5075240;28;20048;-67
2020/12/27 20:31:21;;;;;;;23.45;10.43;;;;;;;0.58;62.80;98814.06;5078759;28;20157;-67
2020/12/27 20:33:50;;;;;;;18.38;10.27;;;;;;;0.61;62.58;98805.25;5077060;28;20113;-66
2020/12/27 20:36:17;;;;;;;17.15;11.35;;;;;;;0.59;62.58;98809.72;5080194;28;20047;-63
2020/12/27 20:38:44;;;;;;;22.17;12.60;;;;;;;0.63;62.47;98795.63;5057925;28;20045;-70
2020/12/27 20:41:11;;;;;;;16.70;9.30;;;;;;;0.61;62.77;98787.91;5065820;28;20082;-68
2020/12/27 20:43:39;;;;;;;14.48;7.70;;;;;;;0.61;62.67;98787.06;5078197;28;20052;-65
2020/12/27 20:46:06;;;;;;;19.25;11.70;;;;;;;0.65;62.58;98772.97;5077833;28;20074;-66
2020/12/27 20:48:32;;;;;;;15.98;10.02;;;;;;;0.66;62.84;98777.25;5075848;28;20059;-66
2020/12/27 20:51:00;;;;;;;10.50;5.53;;;;;;;0.68;62.74;98757.22;5075833;28;20696;-64
2020/12/27 20:53:26;;;;;;;17.00;8.60;;;;;;;0.69;62.83;98764.94;5076220;28;20044;-65
2020/12/27 20:55:54;;;;;;;22.08;10.63;;;;;;;0.70;62.81;98747.56;5076098;28;20101;-65
2020/12/27 20:58:21;;;;;;;18.27;9.75;;;;;;;0.71;62.53;98746.66;5075150;28;20066;-66
2020/12/27 21:00:47;;;;;;;18.75;11.18;;;;;;;0.70;62.87;98737.19;5077469;28;20060;-65
2020/12/27 21:03:13;;;;;;;17.63;8.38;;;;;;;0.72;62.73;98732.72;5076534;28;20597;-64
2020/12/27 21:05:40;;;;;;;13.82;6.53;;;;;;;0.74;62.86;98723.13;5077591;28;20526;-66
2020/12/27 21:08:07;;;;;;;12.93;7.75;;;;;;;0.76;63.07;98729.06;5077314;28;20044;-64
2020/12/27 21:10:34;;;;;;;11.75;6.65;;;;;;;0.74;62.88;98729.16;5077345;28;20050;-68
2020/12/27 21:13:00;;;;;;;18.55;9.98;;;;;;;0.78;62.97;98727.22;5078019;28;20098;-64
2020/12/27 21:15:27;;;;;;;21.65;10.20;;;;;;;0.76;63.27;98734.25;5078046;28;20073;-66
2020/12/27 21:17:53;;;;;;;24.38;13.18;;;;;;;0.75;63.10;98730.81;5078968;28;20056;-66
2020/12/27 21:20:20;;;;;;;19.15;10.23;;;;;;;0.82;63.06;98730.47;5078549;28;20047;-67
2020/12/27 21:22:47;;;;;;;16.15;9.30;;;;;;;0.83;63.35;98735.59;5078046;28;20040;-66
2020/12/27 21:25:14;;;;;;;17.23;9.07;;;;;;;0.83;63.39;98730.38;5078267;28;20044;-66
2020/12/27 21:27:41;;;;;;;24.63;13.13;;;;;;;0.85;63.18;98717.31;5080134;28;20051;-65
2020/12/27 21:30:08;;;;;;;26.10;10.35;;;;;;;0.89;63.28;98729.19;5078418;28;20059;-65
2020/12/27 21:32:35;;;;;;;19.17;9.50;;;;;;;0.90;63.27;98725.66;5084284;28;20077;-65
2020/12/27 21:35:04;;;;;;;23.42;12.75;;;;;;;0.90;63.27;98716.13;5085656;28;20106;-67
2020/12/27 21:37:30;;;;;;;21.35;9.50;;;;;;;0.91;62.98;98711.75;5084700;28;20186;-71
2020/12/27 21:39:56;;;;;;;19.83;10.30;;;;;;;0.87;63.25;98711.09;5082078;28;20044;-64
2020/12/27 21:42:24;;;;;;;20.15;9.98;;;;;;;0.90;63.22;98705.72;5082182;28;20044;-64
2020/12/27 21:44:51;;;;;;;17.58;10.18;;;;;;;0.89;63.19;98701.44;5081774;28;20048;-66
2020/12/27 21:47:17;;;;;;;20.85;10.93;;;;;;;0.94;63.28;98715.00;5082105;28;20048;-65
2020/12/27 21:49:44;;;;;;;19.52;10.00;;;;;;;0.93;63.25;98704.69;5068078;28;20547;-65
2020/12/27 21:52:10;;;;;;;17.95;8.60;;;;;;;0.95;63.01;98708.88;5083239;28;20040;-66
2020/12/27 21:54:37;;;;;;;17.55;8.30;;;;;;;0.98;63.10;98697.47;5083356;28;20044;-68
2020/12/27 21:57:05;;;;;;;21.08;11.70;;;;;;;0.98;63.06;98689.66;5089183;28;20044;-67
2020/12/27 21:59:32;;;;;;;15.90;8.18;;;;;;;1.00;63.22;98689.59;5088189;28;20048;-66
2020/12/27 22:01:58;;;;;;;17.70;8.82;;;;;;;1.01;63.19;98676.50;5090565;28;20185;-65
2020/12/27 22:04:26;;;;;;;18.65;9.77;;;;;;;1.02;63.41;98677.31;5089841;28;20048;-68
2020/12/27 22:06:55;;;;;;;18.45;6.38;;;;;;;1.04;63.26;98670.28;5089576;28;20143;-65
2020/12/27 22:09:21;;;;;;;15.98;9.55;;;;;;;1.07;63.32;98670.09;5090252;28;20047;-65
2020/12/27 22:11:47;;;;;;;21.35;9.13;;;;;;;1.07;63.41;98664.91;5087905;28;20044;-67
2020/12/27 22:14:14;;;;;;;26.08;12.93;;;;;;;1.07;63.51;98673.53;5088341;28;20058;-65
2020/12/27 22:16:44;;;;;;;13.98;7.43;;;;;;;1.11;63.32;98664.59;5073892;28;20048;-68
2020/12/27 22:19:11;;;;;;;30.35;13.05;;;;;;;1.13;63.66;98667.97;5093287;28;20299;-65
2020/12/27 22:21:39;;;;;;;18.60;11.73;;;;;;;1.12;63.38;98673.28;5090127;28;20052;-64
2020/12/27 22:24:06;;;;;;;16.15;9.95;;;;;;;1.07;63.95;98668.31;5086851;28;20044;-65
2020/12/27 22:26:32;;;;;;;17.52;12.02;;;;;;;1.05;64.04;98666.75;5085913;28;20051;-66
2020/12/27 22:28:59;;;;;;;16.83;10.15;;;;;;;1.05;64.10;98666.75;5086113;28;20151;-65
2020/12/27 22:31:25;;;;;;;13.98;7.90;;;;;;;1.03;64.10;98645.22;5071004;28;20609;-64
2020/12/27 22:33:53;;;;;;;20.85;12.32;;;;;;;1.04;64.32;98641.66;5087487;28;20052;-66
2020/12/27 22:36:20;;;;;;;19.85;10.70;;;;;;;1.04;64.28;98633.88;5090461;28;20052;-65
2020/12/27 22:38:49;;;;;;;16.48;9.63;;;;;;;1.07;64.25;98638.91;5091665;28;20078;-65
2020/12/27 22:41:15;;;;;;;23.23;13.23;;;;;;;1.06;64.29;98630.28;5089944;28;20051;-68
2020/12/27 22:43:43;;;;;;;14.13;7.13;;;;;;;1.09;64.07;98629.22;5090408;28;20048;-69
2020/12/27 22:46:10;;;;;;;17.60;10.77;;;;;;;1.11;64.06;98620.41;5090955;28;20128;-65
2020/12/27 22:48:37;;;;;;;22.10;12.07;;;;;;;1.11;64.22;98617.81;5085752;28;20083;-67
2020/12/27 22:51:05;;;;;;;14.40;7.35;;;;;;;1.11;64.31;98609.19;5086713;28;20052;-69
2020/12/27 22:53:31;;;;;;;12.40;6.95;;;;;;;1.14;64.36;98617.63;5086416;28;20055;-66
2020/12/27 22:55:58;;;;;;;16.65;9.18;;;;;;;1.16;64.41;98612.34;5083890;28;20050;-65
2020/12/27 22:58:24;;;;;;;19.88;10.15;;;;;;;1.17;64.02;98608.81;5082768;28;20056;-66
2020/12/27 23:00:51;;;;;;;12.25;7.40;;;;;;;1.17;64.17;98613.16;5085597;28;20047;-65
2020/12/27 23:03:17;;;;;;;15.35;9.30;;;;;;;1.21;64.02;98612.06;5083151;28;20040;-63
2020/12/27 23:05:43;;;;;;;18.38;9.90;;;;;;;1.20;64.05;98608.63;5084142;28;20048;-64
2020/12/27 23:08:12;;;;;;;17.30;10.90;;;;;;;1.18;64.22;98605.28;5083635;28;20055;-70
2020/12/27 23:10:38;;;;;;;14.50;8.25;;;;;;;1.20;64.36;98600.00;5082989;28;20052;-67
2020/12/27 23:13:05;;;;;;;16.15;9.70;;;;;;;1.19;64.16;98596.56;5084691;28;20056;-69
2020/12/27 23:15:33;;;;;;;21.00;11.15;;;;;;;1.21;64.23;98586.91;5084442;28;20100;-65
2020/12/27 23:18:05;;;;;;;8.65;5.32;;;;;;;1.20;64.30;98598.22;5082803;28;20427;-65
2020/12/27 23:20:31;;;;;;;14.02;8.73;;;;;;;1.21;64.36;98580.88;5084311;28;20487;-68
2020/12/27 23:22:58;;;;;;;16.27;7.47;;;;;;;1.19;64.51;98575.75;5083247;28;20047;-65
2020/12/27 23:25:25;;;;;;;14.95;8.40;;;;;;;1.20;64.59;98560.97;5082475;28;20048;-64
2020/12/27 23:27:51;;;;;;;12.82;7.90;;;;;;;1.21;64.41;98557.47;5084867;28;20056;-64
2020/12/27 23:30:20;;;;;;;16.50;9.25;;;;;;;1.22;64.51;98554.75;5082825;28;20640;-65
2020/12/27 23:32:51;;;;;;;14.02;6.28;;;;;;;1.21;64.64;98540.09;5082622;28;20723;-65
2020/12/27 23:35:18;;;;;;;11.30;6.47;;;;;;;1.22;64.62;98544.34;5083865;28;20044;-67
2020/12/27 23:37:44;;;;;;;19.67;10.25;;;;;;;1.21;64.82;98532.28;5081898;28;20096;-65
2020/12/27 23:40:12;;;;;;;11.68;5.63;;;;;;;1.13;65.06;98518.91;5083061;28;20047;-66
2020/12/27 23:42:40;;;;;;;19.20;10.73;;;;;;;1.20;64.91;98515.00;5084123;28;20050;-66
2020/12/27 23:45:08;;;;;;;13.77;6.50;;;;;;;1.24;65.08;98518.25;5082799;28;20040;-64
2020/12/27 23:47:36;;;;;;;15.63;10.20;;;;;;;1.30;64.79;98526.50;5082951;28;20471;-66
2020/12/27 23:50:03;;;;;;;18.63;10.65;;;;;;;1.32;64.59;98516.84;5085603;28;20072;-65
2020/12/27 23:52:29;;;;;;;22.30;12.50;;;;;;;1.31;64.75;98509.97;5083332;28;20153;-66
2020/12/27 23:54:56;;;;;;;16.52;8.63;;;;;;;1.31;64.60;98511.72;5082921;28;20048;-65
2020/12/27 23:57:22;;;;;;;13.93;8.30;;;;;;;1.34;64.90;98512.38;5085348;28;20637;-65
2020/12/27 23:59:49;;;;;;;16.70;9.77;;;;;;;1.29;64.79;98511.81;5081583;28;20059;-65
